sensor_id;sensor_type;location;lat;lon;timestamp;pressure;altitude;pressure_sealevel;temperature;humidity
1029;BME280;503;48.120;11.488;2022-12-07T00:00:45;95275.44;;;5.78;64.55
1029;BME280;503;48.120;11.488;2022-12-07T00:03:10;95278.03;;;5.98;64.31
1029;BME280;503;48.120;11.488;2022-12-07T00:05:35;95274.94;;;6.36;62.93
1029;BME280;503;48.120;11.488;2022-12-07T00:08:01;95280.13;;;6.51;62.80
1029;BME280;503;48.120;11.488;2022-12-07T00:10:26;95272.59;;;6.29;63.59
1029;BME280;503;48.120;11.488;2022-12-07T00:12:51;95276.75;;;6.45;62.48
1029;BME280;503;48.120;11.488;2022-12-07T00:15:16;95270.91;;;5.99;64.10
1029;BME280;503;48.120;11.488;2022-12-07T00:17:42;95266.66;;;6.47;63.03
1029;BME280;503;48.120;11.488;2022-12-07T00:20:07;95271.25;;;6.76;61.86
1029;BME280;503;48.120;11.488;2022-12-07T00:22:32;95267.28;;;6.73;61.96
1029;BME280;503;48.120;11.488;2022-12-07T00:24:58;95261.63;;;6.51;62.65
1029;BME280;503;48.120;11.488;2022-12-07T00:27:23;95264.41;;;6.31;62.83
1029;BME280;503;48.120;11.488;2022-12-07T00:29:48;95251.53;;;6.58;62.53
1029;BME280;503;48.120;11.488;2022-12-07T00:32:14;95260.84;;;6.06;63.78
1029;BME280;503;48.120;11.488;2022-12-07T00:34:39;95263.41;;;6.21;63.04
1029;BME280;503;48.120;11.488;2022-12-07T00:37:04;95254.13;;;6.63;62.07
1029;BME280;503;48.120;11.488;2022-12-07T00:39:29;95258.13;;;6.61;61.99
1029;BME280;503;48.120;11.488;2022-12-07T00:41:55;95251.06;;;6.51;62.51
1029;BME280;503;48.120;11.488;2022-12-07T00:44:20;95252.00;;;6.65;61.85
1029;BME280;503;48.120;11.488;2022-12-07T00:46:45;95256.50;;;6.25;62.04
1029;BME280;503;48.120;11.488;2022-12-07T00:49:10;95263.66;;;6.25;63.23
1029;BME280;503;48.120;11.488;2022-12-07T00:51:36;95263.38;;;6.66;61.69
1029;BME280;503;48.120;11.488;2022-12-07T00:54:01;95259.84;;;7.10;61.16
1029;BME280;503;48.120;11.488;2022-12-07T00:56:28;95261.72;;;6.75;61.10
1029;BME280;503;48.120;11.488;2022-12-07T00:58:57;95265.19;;;6.70;61.34
1029;BME280;503;48.120;11.488;2022-12-07T01:01:23;95257.56;;;6.98;60.87
1029;BME280;503;48.120;11.488;2022-12-07T01:03:49;95260.63;;;6.81;61.09
1029;BME280;503;48.120;11.488;2022-12-07T01:06:15;95262.31;;;6.28;63.10
1029;BME280;503;48.120;11.488;2022-12-07T01:08:41;95253.91;;;6.94;61.51
1029;BME280;503;48.120;11.488;2022-12-07T01:11:07;95259.19;;;6.60;61.41
1029;BME280;503;48.120;11.488;2022-12-07T01:13:33;95256.88;;;6.48;62.35
1029;BME280;503;48.120;11.488;2022-12-07T01:15:59;95256.59;;;6.10;63.63
1029;BME280;503;48.120;11.488;2022-12-07T01:18:29;95253.13;;;6.15;63.88
1029;BME280;503;48.120;11.488;2022-12-07T01:20:58;95260.91;;;5.81;64.90
1029;BME280;503;48.120;11.488;2022-12-07T01:23:23;95264.50;;;6.10;64.07
1029;BME280;503;48.120;11.488;2022-12-07T01:25:53;95260.25;;;6.19;63.86
1029;BME280;503;48.120;11.488;2022-12-07T01:28:19;95261.72;;;6.36;63.08
1029;BME280;503;48.120;11.488;2022-12-07T01:30:44;95258.66;;;6.97;62.08
1029;BME280;503;48.120;11.488;2022-12-07T01:33:09;95260.78;;;6.61;61.61
1029;BME280;503;48.120;11.488;2022-12-07T01:35:34;95266.91;;;6.85;61.67
1029;BME280;503;48.120;11.488;2022-12-07T01:37:59;95267.31;;;6.24;62.14
1029;BME280;503;48.120;11.488;2022-12-07T01:40:25;95261.50;;;6.71;61.87
1029;BME280;503;48.120;11.488;2022-12-07T01:42:50;95257.56;;;6.98;61.17
1029;BME280;503;48.120;11.488;2022-12-07T01:47:43;95255.94;;;7.31;60.82
1029;BME280;503;48.120;11.488;2022-12-07T01:50:10;95251.75;;;7.25;60.41
1029;BME280;503;48.120;11.488;2022-12-07T01:52:35;95252.13;;;7.42;60.07
1029;BME280;503;48.120;11.488;2022-12-07T01:55:09;95238.81;;;7.23;59.57
1029;BME280;503;48.120;11.488;2022-12-07T01:57:36;95251.84;;;6.51;62.00
1029;BME280;503;48.120;11.488;2022-12-07T02:00:04;95251.69;;;6.72;61.83
1029;BME280;503;48.120;11.488;2022-12-07T02:02:31;95246.63;;;6.75;61.24
1029;BME280;503;48.120;11.488;2022-12-07T02:04:58;95249.59;;;7.03;61.43
1029;BME280;503;48.120;11.488;2022-12-07T02:07:24;95244.91;;;6.95;61.03
1029;BME280;503;48.120;11.488;2022-12-07T02:09:50;95248.56;;;6.65;61.36
1029;BME280;503;48.120;11.488;2022-12-07T02:12:15;95252.19;;;5.95;64.77
1029;BME280;503;48.120;11.488;2022-12-07T02:14:41;95246.47;;;6.22;64.22
1029;BME280;503;48.120;11.488;2022-12-07T02:17:21;95237.59;;;6.47;63.37
1029;BME280;503;48.120;11.488;2022-12-07T02:20:11;95241.25;;;6.12;64.13
1029;BME280;503;48.120;11.488;2022-12-07T02:23:02;95241.19;;;6.96;62.25
1029;BME280;503;48.120;11.488;2022-12-07T02:28:04;95240.25;;;6.82;61.95
1029;BME280;503;48.120;11.488;2022-12-07T02:30:32;95236.78;;;6.52;62.32
1029;BME280;503;48.120;11.488;2022-12-07T02:35:36;95241.13;;;6.72;63.52
1029;BME280;503;48.120;11.488;2022-12-07T02:40:43;95229.53;;;7.26;61.37
1029;BME280;503;48.120;11.488;2022-12-07T02:43:16;95223.63;;;7.34;60.75
1029;BME280;503;48.120;11.488;2022-12-07T02:45:44;95230.09;;;7.23;60.44
1029;BME280;503;48.120;11.488;2022-12-07T02:48:11;95233.91;;;7.12;61.45
1029;BME280;503;48.120;11.488;2022-12-07T02:50:37;95226.66;;;7.46;60.89
1029;BME280;503;48.120;11.488;2022-12-07T02:53:02;95225.81;;;7.75;60.16
1029;BME280;503;48.120;11.488;2022-12-07T02:55:29;95230.69;;;7.87;59.59
1029;BME280;503;48.120;11.488;2022-12-07T03:00:31;95228.59;;;7.17;59.60
1029;BME280;503;48.120;11.488;2022-12-07T03:03:00;95225.44;;;6.51;62.12
1029;BME280;503;48.120;11.488;2022-12-07T03:05:36;95230.69;;;6.12;64.94
1029;BME280;503;48.120;11.488;2022-12-07T03:08:12;95229.47;;;6.73;62.99
1029;BME280;503;48.120;11.488;2022-12-07T03:13:12;95222.84;;;7.34;60.78
1029;BME280;503;48.120;11.488;2022-12-07T03:18:14;95224.06;;;7.17;60.51
1029;BME280;503;48.120;11.488;2022-12-07T03:20:41;95226.06;;;6.72;60.99
1029;BME280;503;48.120;11.488;2022-12-07T03:23:08;95222.34;;;6.73;61.65
1029;BME280;503;48.120;11.488;2022-12-07T03:25:35;95221.31;;;6.69;61.81
1029;BME280;503;48.120;11.488;2022-12-07T03:28:05;95232.56;;;6.07;63.56
1029;BME280;503;48.120;11.488;2022-12-07T03:30:33;95236.06;;;5.87;64.81
1029;BME280;503;48.120;11.488;2022-12-07T03:33:10;95230.44;;;6.09;64.01
1029;BME280;503;48.120;11.488;2022-12-07T03:35:40;95228.94;;;5.92;65.25
1029;BME280;503;48.120;11.488;2022-12-07T03:38:19;95227.19;;;5.62;65.77
1029;BME280;503;48.120;11.488;2022-12-07T03:43:11;95230.13;;;5.61;66.36
1029;BME280;503;48.120;11.488;2022-12-07T03:45:41;95220.63;;;5.60;66.76
1029;BME280;503;48.120;11.488;2022-12-07T03:48:08;95224.16;;;6.05;64.87
1029;BME280;503;48.120;11.488;2022-12-07T03:53:09;95213.69;;;5.79;65.40
1029;BME280;503;48.120;11.488;2022-12-07T03:55:39;95226.94;;;6.18;64.93
1029;BME280;503;48.120;11.488;2022-12-07T03:58:11;95215.31;;;6.24;64.52
1029;BME280;503;48.120;11.488;2022-12-07T04:00:41;95213.41;;;6.64;63.94
1029;BME280;503;48.120;11.488;2022-12-07T04:03:06;95210.03;;;6.59;63.31
1029;BME280;503;48.120;11.488;2022-12-07T04:05:31;95214.97;;;6.99;62.59
1029;BME280;503;48.120;11.488;2022-12-07T04:07:57;95213.78;;;6.87;61.77
1029;BME280;503;48.120;11.488;2022-12-07T04:10:22;95207.97;;;7.14;62.00
1029;BME280;503;48.120;11.488;2022-12-07T04:12:47;95201.53;;;6.28;63.94
1029;BME280;503;48.120;11.488;2022-12-07T04:15:12;95210.25;;;6.67;63.60
1029;BME280;503;48.120;11.488;2022-12-07T04:17:37;95214.22;;;5.76;64.87
1029;BME280;503;48.120;11.488;2022-12-07T04:20:03;95227.13;;;5.78;65.84
1029;BME280;503;48.120;11.488;2022-12-07T04:22:29;95212.00;;;5.34;67.37
1029;BME280;503;48.120;11.488;2022-12-07T04:24:54;95218.13;;;5.89;66.80
1029;BME280;503;48.120;11.488;2022-12-07T04:27:19;95225.78;;;5.10;69.23
1029;BME280;503;48.120;11.488;2022-12-07T04:29:44;95226.19;;;5.58;68.24
1029;BME280;503;48.120;11.488;2022-12-07T04:32:09;95226.53;;;5.16;68.83
1029;BME280;503;48.120;11.488;2022-12-07T04:34:35;95220.50;;;5.85;67.89
1029;BME280;503;48.120;11.488;2022-12-07T04:37:01;95224.41;;;6.03;66.52
1029;BME280;503;48.120;11.488;2022-12-07T04:39:27;95218.81;;;5.50;66.98
1029;BME280;503;48.120;11.488;2022-12-07T04:41:53;95214.97;;;5.12;68.60
1029;BME280;503;48.120;11.488;2022-12-07T04:44:19;95219.16;;;5.23;68.38
1029;BME280;503;48.120;11.488;2022-12-07T04:46:45;95223.69;;;5.12;69.78
1029;BME280;503;48.120;11.488;2022-12-07T04:49:10;95212.00;;;5.34;68.18
1029;BME280;503;48.120;11.488;2022-12-07T04:51:36;95213.69;;;4.84;69.36
1029;BME280;503;48.120;11.488;2022-12-07T04:54:01;95221.34;;;4.60;71.37
1029;BME280;503;48.120;11.488;2022-12-07T04:56:26;95215.53;;;4.83;71.03
1029;BME280;503;48.120;11.488;2022-12-07T04:58:52;95222.66;;;4.93;70.27
1029;BME280;503;48.120;11.488;2022-12-07T05:01:18;95221.59;;;4.58;72.03
1029;BME280;503;48.120;11.488;2022-12-07T05:03:43;95212.91;;;4.88;71.01
1029;BME280;503;48.120;11.488;2022-12-07T05:06:09;95219.09;;;5.43;68.94
1029;BME280;503;48.120;11.488;2022-12-07T05:08:34;95216.78;;;5.21;69.32
1029;BME280;503;48.120;11.488;2022-12-07T05:11:00;95230.28;;;4.54;71.34
1029;BME280;503;48.120;11.488;2022-12-07T05:13:26;95226.88;;;4.74;71.53
1029;BME280;503;48.120;11.488;2022-12-07T05:15:51;95237.88;;;4.20;73.06
1029;BME280;503;48.120;11.488;2022-12-07T05:18:16;95231.03;;;4.13;72.97
1029;BME280;503;48.120;11.488;2022-12-07T05:20:42;95220.28;;;4.81;71.86
1029;BME280;503;48.120;11.488;2022-12-07T05:23:07;95221.59;;;4.74;70.75
1029;BME280;503;48.120;11.488;2022-12-07T05:25:32;95220.00;;;4.98;70.32
1029;BME280;503;48.120;11.488;2022-12-07T05:27:58;95226.34;;;4.41;71.58
1029;BME280;503;48.120;11.488;2022-12-07T05:30:23;95221.03;;;5.07;70.49
1029;BME280;503;48.120;11.488;2022-12-07T05:32:49;95225.03;;;4.59;71.51
1029;BME280;503;48.120;11.488;2022-12-07T05:35:14;95230.84;;;4.71;71.16
1029;BME280;503;48.120;11.488;2022-12-07T05:37:39;95227.16;;;4.72;71.32
1029;BME280;503;48.120;11.488;2022-12-07T05:40:05;95221.84;;;4.98;70.83
1029;BME280;503;48.120;11.488;2022-12-07T05:42:30;95222.06;;;5.16;69.67
1029;BME280;503;48.120;11.488;2022-12-07T05:44:55;95222.91;;;4.97;70.09
1029;BME280;503;48.120;11.488;2022-12-07T05:47:21;95227.28;;;5.37;68.98
1029;BME280;503;48.120;11.488;2022-12-07T05:49:46;95220.00;;;5.08;68.98
1029;BME280;503;48.120;11.488;2022-12-07T05:52:11;95226.09;;;4.78;70.53
1029;BME280;503;48.120;11.488;2022-12-07T05:54:37;95218.41;;;5.02;70.42
1029;BME280;503;48.120;11.488;2022-12-07T05:57:02;95221.72;;;5.54;68.55
1029;BME280;503;48.120;11.488;2022-12-07T05:59:28;95226.06;;;4.88;69.33
1029;BME280;503;48.120;11.488;2022-12-07T06:02:04;95227.16;;;4.47;71.07
1029;BME280;503;48.120;11.488;2022-12-07T06:04:31;95233.16;;;4.22;71.81
1029;BME280;503;48.120;11.488;2022-12-07T06:06:56;95235.28;;;4.30;71.78
1029;BME280;503;48.120;11.488;2022-12-07T06:09:22;95225.00;;;5.05;70.17
1029;BME280;503;48.120;11.488;2022-12-07T06:11:48;95236.09;;;4.81;70.21
1029;BME280;503;48.120;11.488;2022-12-07T06:14:32;95233.00;;;5.69;67.59
1029;BME280;503;48.120;11.488;2022-12-07T06:16:57;95225.44;;;6.07;66.80
1029;BME280;503;48.120;11.488;2022-12-07T06:19:23;95227.09;;;5.93;66.97
1029;BME280;503;48.120;11.488;2022-12-07T06:21:48;95237.81;;;5.47;67.58
1029;BME280;503;48.120;11.488;2022-12-07T06:24:14;95239.53;;;4.87;69.95
1029;BME280;503;48.120;11.488;2022-12-07T06:26:40;95240.56;;;4.91;69.66
1029;BME280;503;48.120;11.488;2022-12-07T06:29:05;95239.47;;;5.28;68.21
1029;BME280;503;48.120;11.488;2022-12-07T06:31:31;95245.81;;;4.91;68.98
1029;BME280;503;48.120;11.488;2022-12-07T06:34:00;95235.00;;;5.23;68.78
1029;BME280;503;48.120;11.488;2022-12-07T06:36:26;95234.72;;;5.25;68.05
1029;BME280;503;48.120;11.488;2022-12-07T06:38:51;95245.44;;;5.59;68.29
1029;BME280;503;48.120;11.488;2022-12-07T06:41:17;95245.22;;;6.15;66.56
1029;BME280;503;48.120;11.488;2022-12-07T06:43:42;95245.38;;;6.29;65.66
1029;BME280;503;48.120;11.488;2022-12-07T06:46:07;95233.88;;;6.48;64.51
1029;BME280;503;48.120;11.488;2022-12-07T06:48:32;95240.88;;;6.68;64.38
1029;BME280;503;48.120;11.488;2022-12-07T06:50:58;95247.13;;;6.83;63.30
1029;BME280;503;48.120;11.488;2022-12-07T06:53:23;95244.75;;;6.81;62.74
1029;BME280;503;48.120;11.488;2022-12-07T06:55:48;95240.13;;;6.97;63.36
1029;BME280;503;48.120;11.488;2022-12-07T06:58:13;95239.22;;;6.77;62.04
1029;BME280;503;48.120;11.488;2022-12-07T07:00:39;95224.06;;;6.54;62.85
1029;BME280;503;48.120;11.488;2022-12-07T07:03:07;95252.16;;;6.45;63.59
1029;BME280;503;48.120;11.488;2022-12-07T07:05:36;95248.34;;;6.22;63.71
1029;BME280;503;48.120;11.488;2022-12-07T07:08:09;95252.84;;;6.21;64.23
1029;BME280;503;48.120;11.488;2022-12-07T07:10:35;95250.97;;;5.52;66.33
1029;BME280;503;48.120;11.488;2022-12-07T07:13:01;95251.00;;;6.17;65.16
1029;BME280;503;48.120;11.488;2022-12-07T07:15:26;95253.03;;;5.70;65.58
1029;BME280;503;48.120;11.488;2022-12-07T07:17:52;95255.03;;;5.24;66.69
1029;BME280;503;48.120;11.488;2022-12-07T07:20:17;95260.28;;;5.24;66.75
1029;BME280;503;48.120;11.488;2022-12-07T07:22:42;95257.34;;;5.36;67.38
1029;BME280;503;48.120;11.488;2022-12-07T07:25:07;95247.34;;;5.38;66.29
1029;BME280;503;48.120;11.488;2022-12-07T07:27:33;95253.06;;;5.65;65.19
1029;BME280;503;48.120;11.488;2022-12-07T07:29:58;95256.16;;;5.83;64.56
1029;BME280;503;48.120;11.488;2022-12-07T07:32:23;95256.94;;;5.83;65.30
1029;BME280;503;48.120;11.488;2022-12-07T07:34:48;95259.81;;;6.46;65.01
1029;BME280;503;48.120;11.488;2022-12-07T07:37:13;95260.41;;;6.72;63.63
1029;BME280;503;48.120;11.488;2022-12-07T07:39:39;95266.50;;;7.07;61.87
1029;BME280;503;48.120;11.488;2022-12-07T07:42:04;95265.56;;;6.54;61.56
1029;BME280;503;48.120;11.488;2022-12-07T07:44:29;95261.63;;;6.51;63.19
1029;BME280;503;48.120;11.488;2022-12-07T07:46:54;95264.56;;;6.84;61.28
1029;BME280;503;48.120;11.488;2022-12-07T07:49:19;95265.56;;;7.22;61.17
1029;BME280;503;48.120;11.488;2022-12-07T07:51:45;95272.78;;;7.40;59.96
1029;BME280;503;48.120;11.488;2022-12-07T07:54:10;95263.72;;;7.70;60.18
1029;BME280;503;48.120;11.488;2022-12-07T07:56:35;95263.50;;;7.91;59.56
1029;BME280;503;48.120;11.488;2022-12-07T07:59:01;95260.59;;;8.11;59.30
1029;BME280;503;48.120;11.488;2022-12-07T08:01:26;95267.03;;;8.05;58.20
1029;BME280;503;48.120;11.488;2022-12-07T08:03:51;95268.53;;;7.68;58.60
1029;BME280;503;48.120;11.488;2022-12-07T08:06:16;95274.97;;;7.57;58.13
1029;BME280;503;48.120;11.488;2022-12-07T08:08:41;95271.38;;;7.96;58.43
1029;BME280;503;48.120;11.488;2022-12-07T08:11:08;95271.06;;;8.21;58.44
1029;BME280;503;48.120;11.488;2022-12-07T08:13:33;95173.91;;;7.55;57.69
1029;BME280;503;48.120;11.488;2022-12-07T08:15:58;95267.00;;;8.48;57.63
1029;BME280;503;48.120;11.488;2022-12-07T08:18:27;95270.59;;;8.38;56.95
1029;BME280;503;48.120;11.488;2022-12-07T08:20:58;95263.16;;;8.40;56.92
1029;BME280;503;48.120;11.488;2022-12-07T08:23:23;95260.38;;;8.50;56.77
1029;BME280;503;48.120;11.488;2022-12-07T08:25:48;95268.88;;;8.47;56.76
1029;BME280;503;48.120;11.488;2022-12-07T08:28:13;95268.09;;;8.47;56.39
1029;BME280;503;48.120;11.488;2022-12-07T08:30:38;95268.06;;;8.28;56.87
1029;BME280;503;48.120;11.488;2022-12-07T08:33:04;95280.88;;;8.45;56.60
1029;BME280;503;48.120;11.488;2022-12-07T08:35:29;95268.59;;;8.68;56.42
1029;BME280;503;48.120;11.488;2022-12-07T08:37:54;95278.97;;;8.83;56.47
1029;BME280;503;48.120;11.488;2022-12-07T08:40:19;95267.59;;;8.64;55.66
1029;BME280;503;48.120;11.488;2022-12-07T08:42:49;95271.69;;;8.56;56.23
1029;BME280;503;48.120;11.488;2022-12-07T08:45:14;95276.06;;;8.66;55.80
1029;BME280;503;48.120;11.488;2022-12-07T08:47:41;95266.06;;;8.76;55.39
1029;BME280;503;48.120;11.488;2022-12-07T08:50:07;95263.53;;;8.85;55.23
1029;BME280;503;48.120;11.488;2022-12-07T08:52:34;95262.69;;;8.14;55.35
1029;BME280;503;48.120;11.488;2022-12-07T08:55:00;95256.69;;;7.85;57.25
1029;BME280;503;48.120;11.488;2022-12-07T08:57:26;95268.66;;;8.44;56.46
1029;BME280;503;48.120;11.488;2022-12-07T08:59:53;95274.44;;;8.65;56.01
1029;BME280;503;48.120;11.488;2022-12-07T09:02:18;95270.13;;;8.88;55.54
1029;BME280;503;48.120;11.488;2022-12-07T09:04:44;95267.88;;;9.14;55.15
1029;BME280;503;48.120;11.488;2022-12-07T09:07:09;95267.16;;;9.08;54.34
1029;BME280;503;48.120;11.488;2022-12-07T09:09:34;95271.53;;;9.31;54.31
1029;BME280;503;48.120;11.488;2022-12-07T09:11:59;95273.81;;;9.52;53.89
1029;BME280;503;48.120;11.488;2022-12-07T09:14:25;95273.34;;;9.77;53.32
1029;BME280;503;48.120;11.488;2022-12-07T09:16:50;95255.44;;;9.97;52.66
1029;BME280;503;48.120;11.488;2022-12-07T09:19:15;95263.13;;;9.98;51.88
1029;BME280;503;48.120;11.488;2022-12-07T09:21:40;95257.41;;;9.91;51.51
1029;BME280;503;48.120;11.488;2022-12-07T09:24:07;95251.53;;;9.53;51.08
1029;BME280;503;48.120;11.488;2022-12-07T09:26:32;95251.31;;;9.49;52.25
1029;BME280;503;48.120;11.488;2022-12-07T09:28:58;95266.03;;;9.28;52.34
1029;BME280;503;48.120;11.488;2022-12-07T09:31:23;95270.03;;;9.25;52.31
1029;BME280;503;48.120;11.488;2022-12-07T09:33:52;95275.75;;;8.29;55.00
1029;BME280;503;48.120;11.488;2022-12-07T09:36:18;95271.31;;;8.63;54.62
1029;BME280;503;48.120;11.488;2022-12-07T09:38:43;95255.78;;;9.21;53.94
1029;BME280;503;48.120;11.488;2022-12-07T09:41:08;95248.84;;;9.67;52.83
1029;BME280;503;48.120;11.488;2022-12-07T09:43:34;95248.34;;;9.92;52.07
1029;BME280;503;48.120;11.488;2022-12-07T09:46:00;95252.72;;;9.88;51.44
1029;BME280;503;48.120;11.488;2022-12-07T09:48:35;95260.88;;;9.78;51.65
1029;BME280;503;48.120;11.488;2022-12-07T09:51:02;95263.19;;;8.16;54.75
1029;BME280;503;48.120;11.488;2022-12-07T09:55:53;95254.44;;;9.37;53.36
1029;BME280;503;48.120;11.488;2022-12-07T09:58:23;95244.06;;;9.69;52.42
1029;BME280;503;48.120;11.488;2022-12-07T10:00:50;95243.84;;;9.65;52.10
1029;BME280;503;48.120;11.488;2022-12-07T10:03:18;95247.19;;;9.71;52.55
1029;BME280;503;48.120;11.488;2022-12-07T10:05:47;95239.41;;;9.74;50.88
1029;BME280;503;48.120;11.488;2022-12-07T10:08:13;95245.44;;;9.06;51.42
1029;BME280;503;48.120;11.488;2022-12-07T10:10:40;95201.44;;;8.53;53.09
1029;BME280;503;48.120;11.488;2022-12-07T10:13:17;95246.28;;;7.88;54.75
1029;BME280;503;48.120;11.488;2022-12-07T10:15:45;95237.06;;;7.14;56.11
1029;BME280;503;48.120;11.488;2022-12-07T10:18:21;95240.03;;;6.78;57.52
1029;BME280;503;48.120;11.488;2022-12-07T10:20:59;95242.22;;;7.53;55.85
1029;BME280;503;48.120;11.488;2022-12-07T10:23:24;95246.97;;;8.42;54.10
1029;BME280;503;48.120;11.488;2022-12-07T10:25:49;95239.75;;;8.04;54.19
1029;BME280;503;48.120;11.488;2022-12-07T10:28:19;95236.94;;;9.23;51.49
1029;BME280;503;48.120;11.488;2022-12-07T10:30:52;95235.88;;;7.97;53.81
1029;BME280;503;48.120;11.488;2022-12-07T10:35:56;95224.97;;;9.53;49.64
1029;BME280;503;48.120;11.488;2022-12-07T10:38:21;95241.25;;;9.19;50.35
1029;BME280;503;48.120;11.488;2022-12-07T10:40:46;95237.25;;;10.04;49.73
1029;BME280;503;48.120;11.488;2022-12-07T10:46:06;95237.31;;;10.62;48.72
1029;BME280;503;48.120;11.488;2022-12-07T10:53:47;95222.88;;;9.22;48.97
1029;BME280;503;48.120;11.488;2022-12-07T10:56:24;95205.88;;;9.64;48.01
1029;BME280;503;48.120;11.488;2022-12-07T11:01:24;95207.75;;;9.64;48.36
1029;BME280;503;48.120;11.488;2022-12-07T11:04:14;95205.16;;;9.86;47.69
1029;BME280;503;48.120;11.488;2022-12-07T11:14:11;95205.81;;;8.06;51.30
1029;BME280;503;48.120;11.488;2022-12-07T11:21:48;95193.00;;;8.32;51.30
1029;BME280;503;48.120;11.488;2022-12-07T11:24:19;95191.28;;;8.23;50.89
1029;BME280;503;48.120;11.488;2022-12-07T11:34:37;95175.97;;;9.18;48.05
1029;BME280;503;48.120;11.488;2022-12-07T11:37:07;95190.19;;;7.19;53.07
1029;BME280;503;48.120;11.488;2022-12-07T11:39:39;95182.03;;;6.58;54.04
1029;BME280;503;48.120;11.488;2022-12-07T11:42:27;95188.56;;;7.23;52.08
1029;BME280;503;48.120;11.488;2022-12-07T11:45:00;95184.50;;;7.07;52.90
1029;BME280;503;48.120;11.488;2022-12-07T11:49:58;95173.88;;;8.36;50.21
1029;BME280;503;48.120;11.488;2022-12-07T11:52:34;95169.88;;;8.00;50.52
1029;BME280;503;48.120;11.488;2022-12-07T11:55:01;95164.44;;;7.73;51.00
1029;BME280;503;48.120;11.488;2022-12-07T11:57:36;95162.22;;;7.99;50.02
1029;BME280;503;48.120;11.488;2022-12-07T12:00:05;95161.09;;;7.62;51.17
1029;BME280;503;48.120;11.488;2022-12-07T12:02:32;95153.19;;;8.38;50.18
1029;BME280;503;48.120;11.488;2022-12-07T12:07:41;95145.03;;;8.67;49.70
1029;BME280;503;48.120;11.488;2022-12-07T12:10:18;95148.81;;;8.47;50.39
1029;BME280;503;48.120;11.488;2022-12-07T12:20:41;95129.59;;;9.43;48.56
1029;BME280;503;48.120;11.488;2022-12-07T12:23:13;95128.19;;;9.04;47.82
1029;BME280;503;48.120;11.488;2022-12-07T12:28:44;95127.13;;;9.82;47.53
1029;BME280;503;48.120;11.488;2022-12-07T12:31:04;95123.97;;;10.53;45.60
1029;BME280;503;48.120;11.488;2022-12-07T12:33:30;95120.00;;;11.04;45.02
1029;BME280;503;48.120;11.488;2022-12-07T12:36:56;95116.56;;;10.72;44.26
1029;BME280;503;48.120;11.488;2022-12-07T12:57:35;95126.25;;;8.30;46.22
1029;BME280;503;48.120;11.488;2022-12-07T13:00:01;95121.91;;;9.14;46.62
1029;BME280;503;48.120;11.488;2022-12-07T13:02:29;95109.94;;;10.16;45.79
1029;BME280;503;48.120;11.488;2022-12-07T13:10:04;95113.81;;;10.32;45.59
1029;BME280;503;48.120;11.488;2022-12-07T13:12:29;95112.13;;;9.78;46.43
1029;BME280;503;48.120;11.488;2022-12-07T13:14:58;95107.00;;;10.40;45.74
1029;BME280;503;48.120;11.488;2022-12-07T13:19:58;95105.50;;;10.79;45.18
1029;BME280;503;48.120;11.488;2022-12-07T13:22:34;95100.28;;;10.65;44.26
1029;BME280;503;48.120;11.488;2022-12-07T13:25:07;95094.91;;;10.56;44.86
1029;BME280;503;48.120;11.488;2022-12-07T13:27:34;95100.78;;;10.45;45.68
1029;BME280;503;48.120;11.488;2022-12-07T13:30:05;95101.94;;;9.94;45.22
1029;BME280;503;48.120;11.488;2022-12-07T13:32:36;95105.91;;;9.32;46.23
1029;BME280;503;48.120;11.488;2022-12-07T13:35:26;95110.16;;;7.51;50.31
1029;BME280;503;48.120;11.488;2022-12-07T13:37:47;95107.09;;;8.52;48.01
1029;BME280;503;48.120;11.488;2022-12-07T13:40:19;95108.34;;;8.22;48.74
1029;BME280;503;48.120;11.488;2022-12-07T13:42:45;95107.94;;;7.40;48.92
1029;BME280;503;48.120;11.488;2022-12-07T13:45:17;95108.72;;;7.16;50.33
1029;BME280;503;48.120;11.488;2022-12-07T13:47:49;95106.22;;;6.82;50.21
1029;BME280;503;48.120;11.488;2022-12-07T13:50:27;95103.59;;;6.53;51.47
1029;BME280;503;48.120;11.488;2022-12-07T13:52:56;95106.47;;;6.57;51.39
1029;BME280;503;48.120;11.488;2022-12-07T13:55:21;95101.41;;;6.84;50.86
1029;BME280;503;48.120;11.488;2022-12-07T13:57:47;95094.00;;;6.62;51.52
1029;BME280;503;48.120;11.488;2022-12-07T14:00:18;95095.56;;;6.63;51.66
1029;BME280;503;48.120;11.488;2022-12-07T14:02:58;95097.53;;;7.00;50.69
1029;BME280;503;48.120;11.488;2022-12-07T14:05:30;95094.06;;;6.81;50.90
1029;BME280;503;48.120;11.488;2022-12-07T14:07:57;95090.84;;;6.31;51.51
1029;BME280;503;48.120;11.488;2022-12-07T14:12:54;95091.72;;;6.21;52.62
1029;BME280;503;48.120;11.488;2022-12-07T14:15:21;95093.78;;;6.83;51.06
1029;BME280;503;48.120;11.488;2022-12-07T14:17:50;95095.06;;;6.85;50.39
1029;BME280;503;48.120;11.488;2022-12-07T14:23:01;95093.16;;;6.38;49.37
1029;BME280;503;48.120;11.488;2022-12-07T14:25:34;95089.53;;;6.58;48.81
1029;BME280;503;48.120;11.488;2022-12-07T14:28:09;95086.59;;;6.59;48.83
1029;BME280;503;48.120;11.488;2022-12-07T14:30:49;95090.34;;;5.90;51.07
1029;BME280;503;48.120;11.488;2022-12-07T14:33:14;95092.19;;;5.94;51.03
1029;BME280;503;48.120;11.488;2022-12-07T14:35:39;95085.66;;;6.50;49.66
1029;BME280;503;48.120;11.488;2022-12-07T14:38:05;95088.44;;;6.35;50.58
1029;BME280;503;48.120;11.488;2022-12-07T14:40:30;95086.88;;;6.87;49.08
1029;BME280;503;48.120;11.488;2022-12-07T14:43:08;95094.56;;;7.07;48.40
1029;BME280;503;48.120;11.488;2022-12-07T14:45:34;95090.34;;;7.06;49.20
1029;BME280;503;48.120;11.488;2022-12-07T14:47:59;95091.63;;;6.61;50.28
1029;BME280;503;48.120;11.488;2022-12-07T14:50:24;95088.94;;;6.66;50.32
1029;BME280;503;48.120;11.488;2022-12-07T14:52:56;95092.13;;;6.34;51.35
1029;BME280;503;48.120;11.488;2022-12-07T14:55:28;95083.75;;;6.80;49.48
1029;BME280;503;48.120;11.488;2022-12-07T14:57:54;95092.00;;;7.02;49.05
1029;BME280;503;48.120;11.488;2022-12-07T15:00:20;95083.97;;;6.59;49.95
1029;BME280;503;48.120;11.488;2022-12-07T15:02:46;95089.34;;;7.02;49.77
1029;BME280;503;48.120;11.488;2022-12-07T15:05:12;95086.34;;;7.09;48.75
1029;BME280;503;48.120;11.488;2022-12-07T15:07:38;95082.63;;;7.10;48.79
1029;BME280;503;48.120;11.488;2022-12-07T15:10:03;95074.69;;;7.10;48.92
1029;BME280;503;48.120;11.488;2022-12-07T15:12:29;95083.22;;;7.07;49.18
1029;BME280;503;48.120;11.488;2022-12-07T15:14:54;95085.91;;;7.01;49.75
1029;BME280;503;48.120;11.488;2022-12-07T15:17:19;95085.09;;;7.01;49.96
1029;BME280;503;48.120;11.488;2022-12-07T15:19:45;95089.34;;;7.02;49.48